Time;durP1;ratioP1;P1;durP2;ratioP2;P2;SDS_P1;SDS_P2;PMS_P1;PMS_P2;Temp;Humidity;BMP_temperature;BMP_pressure;BME280_temperature;BME280_humidity;BME280_pressure;Samples;Min_cycle;Max_cycle;Signal;HPM_P1;HPM_P2
2023/11/02 00:00:55;;;;;;;;;;;;;;;5.91;79.76;100240.89;106338;1261;61378;-85
2023/11/02 00:03:42;;;;;;;;;;;;;;;5.94;79.69;100243.23;106342;1258;59995;-86
2023/11/02 00:06:38;;;;;;;;;;;;;;;5.96;79.78;100241.79;106326;1258;124007;-85
2023/11/02 00:09:11;;;;;;;;;;;;;;;5.99;79.70;100243.11;106239;1261;66092;-85
2023/11/02 00:11:44;;;;;;;;;;;;;;;5.99;79.74;100237.38;106329;1258;124221;-86
2023/11/02 00:14:11;;;;;;;;;;;;;;;6.00;79.65;100231.65;106306;1258;60238;-85
2023/11/02 00:16:38;;;;;;;;;;;;;;;6.03;79.83;100228.96;106230;1258;124162;-86
2023/11/02 00:19:05;;;;;;;;;;;;;;;6.04;79.74;100227.27;106457;1257;74687;-86
2023/11/02 00:21:35;;;;;;;;;;;;;;;6.03;79.64;100225.48;106401;1259;66520;-86
2023/11/02 00:24:01;;;;;;;;;;;;;;;6.03;79.81;100228.80;106449;1258;123952;-86
2023/11/02 00:26:28;;;;;;;;;;;;;;;6.01;79.74;100231.20;106387;1263;61349;-86
2023/11/02 00:28:54;;;;;;;;;;;;;;;5.97;79.68;100229.46;106400;1259;124068;-85
2023/11/02 00:31:21;;;;;;;;;;;;;;;5.95;79.84;100221.71;106375;1258;74779;-86
2023/11/02 00:33:48;;;;;;;;;;;;;;;5.97;80.05;100214.66;106341;1258;65104;-85
2023/11/02 00:36:16;;;;;;;;;;;;;;;5.99;80.20;100215.60;106293;1258;72702;-85
2023/11/02 00:38:43;;;;;;;;;;;;;;;6.01;80.16;100211.66;106379;1258;61256;-87
2023/11/02 00:41:10;;;;;;;;;;;;;;;6.02;80.13;100204.02;106170;1259;123900;-84
2023/11/02 00:43:37;;;;;;;;;;;;;;;6.02;80.16;100199.83;106184;1259;73962;-85
2023/11/02 00:46:03;;;;;;;;;;;;;;;6.01;80.16;100191.98;106283;1265;124128;-85
2023/11/02 00:48:31;;;;;;;;;;;;;;;6.01;80.21;100188.14;106373;1259;71840;-86
2023/11/02 00:51:19;;;;;;;;;;;;;;;6.00;80.25;100190.56;106288;1258;61320;-86
2023/11/02 00:53:48;;;;;;;;;;;;;;;6.01;80.21;100191.62;106227;1259;136385;-86
2023/11/02 00:56:14;;;;;;;;;;;;;;;6.01;80.34;100189.52;106130;1263;74503;-87
2023/11/02 00:58:49;;;;;;;;;;;;;;;6.00;80.24;100188.98;106167;1260;124852;-86
2023/11/02 01:01:16;;;;;;;;;;;;;;;6.00;80.32;100185.48;106267;1259;72699;-86
2023/11/02 01:03:47;;;;;;;;;;;;;;;6.01;80.53;100182.25;106207;1258;61259;-87
2023/11/02 01:06:19;;;;;;;;;;;;;;;6.05;80.62;100177.14;106042;1258;60911;-86
2023/11/02 01:08:52;;;;;;;;;;;;;;;6.09;80.57;100180.59;106053;1264;74869;-87
2023/11/02 01:11:20;;;;;;;;;;;;;;;6.13;80.61;100172.50;106074;1258;125056;-86
2023/11/02 01:13:47;;;;;;;;;;;;;;;6.15;80.69;100166.67;106097;1264;73190;-86
2023/11/02 01:16:14;;;;;;;;;;;;;;;6.17;80.58;100161.49;106180;1258;125110;-86
2023/11/02 01:18:43;;;;;;;;;;;;;;;6.17;80.42;100157.31;106204;1259;61360;-87
2023/11/02 01:21:10;;;;;;;;;;;;;;;6.15;80.41;100153.27;106230;1264;74851;-87
2023/11/02 01:23:36;;;;;;;;;;;;;;;6.12;80.32;100148.27;105941;1258;124855;-86
2023/11/02 01:26:04;;;;;;;;;;;;;;;6.07;80.30;100140.08;106217;1257;71174;-86
2023/11/02 01:28:50;;;;;;;;;;;;;;;5.99;80.12;100133.90;106126;1258;125860;-86
2023/11/02 01:31:17;;;;;;;;;;;;;;;5.89;80.08;100134.59;106354;1259;61163;-87
2023/11/02 01:33:47;;;;;;;;;;;;;;;5.81;80.10;100134.86;106324;1264;72810;-87
2023/11/02 01:36:16;;;;;;;;;;;;;;;5.72;79.98;100137.84;106193;1258;191575;-87
2023/11/02 01:38:43;;;;;;;;;;;;;;;5.64;80.08;100136.00;106236;1258;71955;-86
2023/11/02 01:41:10;;;;;;;;;;;;;;;5.57;80.16;100129.14;106152;1259;125055;-86
2023/11/02 01:43:44;;;;;;;;;;;;;;;5.53;80.32;100128.13;106131;1259;61301;-85
2023/11/02 01:46:21;;;;;;;;;;;;;;;5.53;80.52;100118.73;106150;1258;124968;-86
2023/11/02 01:48:51;;;;;;;;;;;;;;;5.55;80.65;100118.97;106302;1259;64910;-85
2023/11/02 01:51:19;;;;;;;;;;;;;;;5.59;80.80;100119.81;106322;1257;71350;-86
2023/11/02 01:53:57;;;;;;;;;;;;;;;5.60;80.79;100116.54;106130;1261;125076;-86
2023/11/02 01:56:43;;;;;;;;;;;;;;;5.60;80.86;100110.45;106231;1259;61153;-84
2023/11/02 01:59:13;;;;;;;;;;;;;;;5.61;80.86;100108.59;106066;1259;125790;-86
2023/11/02 02:01:43;;;;;;;;;;;;;;;5.60;80.83;100109.60;106024;1260;66298;-85
2023/11/02 02:04:15;;;;;;;;;;;;;;;5.60;80.87;100117.94;106033;1259;125141;-86
2023/11/02 02:06:48;;;;;;;;;;;;;;;5.59;80.89;100117.39;106248;1260;61336;-86
2023/11/02 02:09:15;;;;;;;;;;;;;;;5.57;80.83;100110.86;106297;1259;61233;-85
2023/11/02 02:11:54;;;;;;;;;;;;;;;5.54;80.87;100104.33;106163;1265;125204;-87
2023/11/02 02:14:32;;;;;;;;;;;;;;;5.53;80.93;100104.11;106201;1263;66633;-87
2023/11/02 02:17:02;;;;;;;;;;;;;;;5.52;80.89;100099.88;106134;1260;124772;-87
2023/11/02 02:19:29;;;;;;;;;;;;;;;5.48;80.86;100096.77;106178;1264;61356;-86
2023/11/02 02:21:59;;;;;;;;;;;;;;;5.43;80.83;100096.99;106104;1259;125057;-86
2023/11/02 02:24:38;;;;;;;;;;;;;;;5.36;80.77;100091.36;106608;1262;72788;-87
2023/11/02 02:27:13;;;;;;;;;;;;;;;5.31;80.94;100089.92;106339;1260;66569;-85
2023/11/02 02:29:43;;;;;;;;;;;;;;;5.25;80.87;100086.08;106174;1262;125234;-87
2023/11/02 02:32:10;;;;;;;;;;;;;;;5.18;80.77;100090.52;106308;1261;61645;-86
2023/11/02 02:34:55;;;;;;;;;;;;;;;5.12;81.03;100094.13;106254;1260;125010;-85
2023/11/02 02:37:36;;;;;;;;;;;;;;;5.09;81.13;100095.07;106400;1262;75143;-85
2023/11/02 02:40:07;;;;;;;;;;;;;;;5.06;81.24;100098.79;106264;1262;125076;-86
2023/11/02 02:42:34;;;;;;;;;;;;;;;5.09;81.52;100102.52;106172;1259;72740;-85
2023/11/02 02:45:03;;;;;;;;;;;;;;;5.12;81.70;100100.03;106269;1259;61191;-86
2023/11/02 02:47:29;;;;;;;;;;;;;;;5.18;81.86;100094.16;106188;1259;123711;-85
2023/11/02 02:49:56;;;;;;;;;;;;;;;5.22;81.99;100088.23;106402;1259;73466;-85
2023/11/02 02:52:23;;;;;;;;;;;;;;;5.27;82.01;100082.66;106241;1262;125144;-85
2023/11/02 02:54:50;;;;;;;;;;;;;;;5.33;82.04;100084.11;106272;1265;71407;-87
2023/11/02 02:57:17;;;;;;;;;;;;;;;5.41;82.30;100083.01;106126;1262;61195;-85
2023/11/02 02:59:46;;;;;;;;;;;;;;;5.49;82.22;100082.56;106036;1260;125006;-85
2023/11/02 03:02:13;;;;;;;;;;;;;;;5.52;82.09;100073.60;106066;1259;74767;-85
2023/11/02 03:04:40;;;;;;;;;;;;;;;5.53;82.06;100077.66;106123;1262;124746;-86
2023/11/02 03:07:07;;;;;;;;;;;;;;;5.58;82.15;100083.92;106151;1259;72548;-86
2023/11/02 03:09:34;;;;;;;;;;;;;;;5.62;82.17;100075.54;106231;1260;59935;-84
2023/11/02 03:12:02;;;;;;;;;;;;;;;5.66;82.17;100073.92;106135;1260;125014;-86
2023/11/02 03:14:30;;;;;;;;;;;;;;;5.72;82.17;100068.02;106098;1265;73366;-86
2023/11/02 03:16:58;;;;;;;;;;;;;;;5.72;81.98;100064.55;106121;1259;125310;-87
2023/11/02 03:19:45;;;;;;;;;;;;;;;5.73;81.97;100064.73;106256;1264;71357;-87
2023/11/02 03:22:12;;;;;;;;;;;;;;;5.72;81.93;100063.52;106172;1263;125242;-87
2023/11/02 03:24:57;;;;;;;;;;;;;;;5.72;81.89;100063.67;106236;1262;61261;-85
2023/11/02 03:27:31;;;;;;;;;;;;;;;5.70;81.85;100061.00;106277;1259;75674;-86
2023/11/02 03:30:04;;;;;;;;;;;;;;;5.69;81.71;100067.74;106081;1261;124809;-87
2023/11/02 03:32:34;;;;;;;;;;;;;;;5.65;81.73;100065.36;106077;1259;71427;-87
2023/11/02 03:35:30;;;;;;;;;;;;;;;5.61;81.67;100064.71;106231;1259;124978;-88
2023/11/02 03:38:00;;;;;;;;;;;;;;;5.56;81.66;100069.23;106192;1263;61357;-88
2023/11/02 03:40:43;;;;;;;;;;;;;;;5.51;81.58;100067.52;106272;1259;124949;-88
2023/11/02 03:43:19;;;;;;;;;;;;;;;5.45;81.65;100062.27;106143;1262;66274;-87
2023/11/02 03:46:05;;;;;;;;;;;;;;;5.42;81.85;100065.98;106359;1262;72690;-87
2023/11/02 03:48:31;;;;;;;;;;;;;;;5.39;81.88;100066.22;106071;1262;61252;-88
2023/11/02 03:50:58;;;;;;;;;;;;;;;5.37;81.88;100072.59;106160;1262;61363;-88
2023/11/02 03:53:44;;;;;;;;;;;;;;;5.34;82.02;100069.17;106030;1258;125125;-87
2023/11/02 03:56:16;;;;;;;;;;;;;;;5.40;82.41;100071.97;106350;1261;66285;-88
2023/11/02 03:58:52;;;;;;;;;;;;;;;5.46;82.68;100063.14;106102;1263;124881;-88
2023/11/02 04:01:24;;;;;;;;;;;;;;;5.53;82.95;100054.88;106277;1259;59906;-87
2023/11/02 04:03:51;;;;;;;;;;;;;;;5.63;83.19;100046.66;105990;1264;61290;-87
2023/11/02 04:06:22;;;;;;;;;;;;;;;5.73;83.36;100046.64;106204;1258;124682;-87
2023/11/02 04:08:49;;;;;;;;;;;;;;;5.80;83.43;100042.53;106278;1261;64854;-86
2023/11/02 04:11:15;;;;;;;;;;;;;;;5.83;83.27;100036.38;106084;1260;124847;-86
2023/11/02 04:13:53;;;;;;;;;;;;;;;5.89;83.23;100033.05;106238;1263;61387;-87
2023/11/02 04:16:20;;;;;;;;;;;;;;;5.93;83.34;100031.30;106138;1264;126038;-85
2023/11/02 04:18:47;;;;;;;;;;;;;;;5.99;83.43;100033.23;106190;1260;74684;-85
2023/11/02 04:21:13;;;;;;;;;;;;;;;6.03;83.35;100031.96;106187;1257;64997;-88
2023/11/02 04:23:41;;;;;;;;;;;;;;;6.06;83.32;100023.36;106179;1257;126058;-87
2023/11/02 04:26:07;;;;;;;;;;;;;;;6.07;83.27;100018.88;106213;1259;59745;-87
2023/11/02 04:28:34;;;;;;;;;;;;;;;6.08;83.09;100009.51;106206;1264;125468;-88
2023/11/02 04:31:01;;;;;;;;;;;;;;;6.09;83.13;100012.48;106369;1263;74685;-87
2023/11/02 04:33:27;;;;;;;;;;;;;;;6.10;83.32;100003.98;106286;1262;66201;-87
2023/11/02 04:35:54;;;;;;;;;;;;;;;6.08;83.22;100003.41;106023;1260;125153;-87
2023/11/02 04:38:20;;;;;;;;;;;;;;;6.05;83.04;100008.88;106121;1261;61298;-86
2023/11/02 04:40:47;;;;;;;;;;;;;;;6.00;82.92;100009.77;106046;1261;124942;-86
2023/11/02 04:43:14;;;;;;;;;;;;;;;5.95;82.90;100014.63;106209;1263;74579;-86
2023/11/02 04:45:40;;;;;;;;;;;;;;;5.88;82.90;100018.61;106010;1263;66281;-86
2023/11/02 04:48:08;;;;;;;;;;;;;;;5.83;82.89;100026.09;106171;1260;124898;-85
2023/11/02 04:50:34;;;;;;;;;;;;;;;5.78;82.86;100023.67;106175;1259;61386;-85
2023/11/02 04:53:01;;;;;;;;;;;;;;;5.73;82.93;100024.37;106200;1263;124872;-86
2023/11/02 04:55:28;;;;;;;;;;;;;;;5.68;82.92;100015.48;106250;1258;74518;-85
2023/11/02 04:57:54;;;;;;;;;;;;;;;5.63;82.99;100015.19;106054;1259;126265;-86
2023/11/02 05:00:21;;;;;;;;;;;;;;;5.60;82.90;100008.98;106235;1261;72778;-87
2023/11/02 05:02:48;;;;;;;;;;;;;;;5.56;83.00;99996.14;106194;1263;61282;-85
2023/11/02 05:05:15;;;;;;;;;;;;;;;5.52;83.05;99987.13;106061;1259;124806;-85
2023/11/02 05:07:42;;;;;;;;;;;;;;;5.50;83.27;99986.70;106282;1265;73395;-83
2023/11/02 05:10:08;;;;;;;;;;;;;;;5.46;83.34;99986.93;106183;1267;124751;-84
2023/11/02 05:12:35;;;;;;;;;;;;;;;5.43;83.27;99988.08;106157;1261;71713;-87
2023/11/02 05:15:02;;;;;;;;;;;;;;;5.42;83.35;99996.21;106212;1263;61315;-83
2023/11/02 05:17:29;;;;;;;;;;;;;;;5.43;83.50;99995.89;106208;1259;124668;-86
2023/11/02 05:19:55;;;;;;;;;;;;;;;5.47;83.86;99994.63;106348;1258;74477;-84
2023/11/02 05:22:22;;;;;;;;;;;;;;;5.53;83.84;99994.11;106159;1261;124903;-87
2023/11/02 05:24:48;;;;;;;;;;;;;;;5.56;83.98;99988.30;106333;1263;72755;-89
2023/11/02 05:27:15;;;;;;;;;;;;;;;5.60;84.03;99984.08;106340;1259;61281;-86
2023/11/02 05:29:42;;;;;;;;;;;;;;;5.65;84.04;99984.23;106391;1257;124815;-85
2023/11/02 05:32:09;;;;;;;;;;;;;;;5.69;84.04;99982.10;106288;1263;73509;-86
2023/11/02 05:34:35;;;;;;;;;;;;;;;5.77;84.20;99983.04;106264;1264;125336;-83
2023/11/02 05:37:04;;;;;;;;;;;;;;;5.85;84.41;99986.10;106257;1258;73649;-76
2023/11/02 05:39:31;;;;;;;;;;;;;;;5.93;84.46;99985.34;105720;1271;61780;-89
2023/11/02 05:41:57;;;;;;;;;;;;;;;6.00;84.51;99977.03;106123;1260;124635;-89
2023/11/02 05:44:24;;;;;;;;;;;;;;;6.05;84.52;99972.48;106239;1263;72652;-88
2023/11/02 05:46:52;;;;;;;;;;;;;;;6.10;84.63;99970.38;106147;1259;124601;-88
2023/11/02 05:49:19;;;;;;;;;;;;;;;6.15;84.68;99979.59;106228;1265;72719;-87
2023/11/02 05:51:46;;;;;;;;;;;;;;;6.20;84.73;99976.59;106330;1263;60043;-88
2023/11/02 05:54:12;;;;;;;;;;;;;;;6.24;84.86;99973.05;106186;1260;124670;-87
2023/11/02 05:56:39;;;;;;;;;;;;;;;6.29;84.86;99975.45;106248;1257;74674;-87
2023/11/02 05:59:06;;;;;;;;;;;;;;;6.36;85.01;99972.17;106238;1262;124881;-87
2023/11/02 06:01:32;;;;;;;;;;;;;;;6.42;85.15;99965.04;106337;1263;72374;-88
2023/11/02 06:04:02;;;;;;;;;;;;;;;6.49;85.18;99966.96;106122;1261;125949;-82
2023/11/02 06:06:29;;;;;;;;;;;;;;;6.52;85.10;99966.55;106384;1263;61298;-79
2023/11/02 06:08:55;;;;;;;;;;;;;;;6.56;85.22;99957.77;106383;1264;73300;-79
2023/11/02 06:11:22;;;;;;;;;;;;;;;6.62;85.26;99953.92;106210;1257;124639;-79
2023/11/02 06:13:49;;;;;;;;;;;;;;;6.67;85.27;99958.06;106205;1257;71661;-80
2023/11/02 06:16:15;;;;;;;;;;;;;;;6.73;85.44;99966.08;105844;1264;124752;-84
2023/11/02 06:18:44;;;;;;;;;;;;;;;6.79;85.53;99959.46;106279;1258;61158;-84
2023/11/02 06:21:11;;;;;;;;;;;;;;;6.87;85.53;99964.39;106548;1263;73056;-85
2023/11/02 06:23:37;;;;;;;;;;;;;;;6.96;85.62;99961.31;106439;1260;124646;-85
2023/11/02 06:26:04;;;;;;;;;;;;;;;7.05;85.64;99962.25;106396;1262;72097;-84
2023/11/02 06:28:31;;;;;;;;;;;;;;;7.14;85.71;99959.87;106353;1260;125158;-85
2023/11/02 06:30:59;;;;;;;;;;;;;;;7.24;85.71;99956.80;106338;1264;61335;-88
2023/11/02 06:33:27;;;;;;;;;;;;;;;7.32;85.57;99955.44;106374;1259;74748;-87
2023/11/02 06:35:56;;;;;;;;;;;;;;;7.42;85.60;99956.40;106370;1261;124760;-87
2023/11/02 06:38:23;;;;;;;;;;;;;;;7.50;85.52;99955.36;106437;1271;71051;-87
2023/11/02 06:40:50;;;;;;;;;;;;;;;7.59;85.47;99953.49;106468;1259;124718;-87
2023/11/02 06:43:16;;;;;;;;;;;;;;;7.68;85.28;99951.41;106726;1263;61157;-87
2023/11/02 06:45:43;;;;;;;;;;;;;;;7.76;85.33;99958.60;106757;1264;72419;-87
2023/11/02 06:48:10;;;;;;;;;;;;;;;7.86;85.25;99962.16;106381;1259;124794;-88
2023/11/02 06:50:37;;;;;;;;;;;;;;;7.96;85.21;99963.45;106574;1263;72763;-87
2023/11/02 06:53:03;;;;;;;;;;;;;;;8.05;85.01;99958.04;106297;1260;125244;-87
2023/11/02 06:55:30;;;;;;;;;;;;;;;8.11;84.91;99954.35;106309;1258;61360;-86
2023/11/02 06:57:57;;;;;;;;;;;;;;;8.16;84.72;99954.61;106347;1261;125169;-86
2023/11/02 07:00:23;;;;;;;;;;;;;;;8.19;84.58;99950.67;106294;1260;66261;-86
2023/11/02 07:02:50;;;;;;;;;;;;;;;8.22;84.45;99952.13;106221;1264;72470;-86
2023/11/02 07:05:17;;;;;;;;;;;;;;;8.24;84.26;99958.29;106062;1260;124912;-87
2023/11/02 07:07:48;;;;;;;;;;;;;;;8.26;84.20;99947.33;106213;1260;61310;-87
2023/11/02 07:10:15;;;;;;;;;;;;;;;8.30;84.18;99942.15;106113;1260;125466;-87
2023/11/02 07:12:42;;;;;;;;;;;;;;;8.32;84.16;99938.20;106145;1259;66008;-87
2023/11/02 07:15:09;;;;;;;;;;;;;;;8.36;84.09;99931.60;106170;1264;71367;-87
2023/11/02 07:17:35;;;;;;;;;;;;;;;8.38;84.06;99923.09;105917;1260;124598;-86
2023/11/02 07:20:03;;;;;;;;;;;;;;;8.44;84.14;99916.59;106215;1260;60493;-86
2023/11/02 07:22:30;;;;;;;;;;;;;;;8.48;83.90;99920.36;106268;1257;124856;-86
2023/11/02 07:24:56;;;;;;;;;;;;;;;8.50;84.02;99917.96;106233;1257;66631;-86
2023/11/02 07:27:23;;;;;;;;;;;;;;;8.56;84.02;99915.63;106217;1264;72746;-85
2023/11/02 07:29:50;;;;;;;;;;;;;;;8.60;83.93;99913.27;105975;1260;124789;-88
2023/11/02 07:32:17;;;;;;;;;;;;;;;8.62;83.85;99912.23;106096;1261;61364;-89
2023/11/02 07:34:43;;;;;;;;;;;;;;;8.65;83.85;99910.55;106240;1260;124555;-87
2023/11/02 07:37:10;;;;;;;;;;;;;;;8.66;83.65;99903.38;106180;1261;65870;-86
2023/11/02 07:39:36;;;;;;;;;;;;;;;8.62;83.54;99893.00;106154;1260;72727;-87
2023/11/02 07:42:03;;;;;;;;;;;;;;;8.61;83.53;99884.41;106076;1258;124533;-87
2023/11/02 07:44:30;;;;;;;;;;;;;;;8.60;83.59;99877.57;106294;1264;61355;-86
2023/11/02 07:46:56;;;;;;;;;;;;;;;8.60;83.53;99880.02;106110;1260;124041;-85
2023/11/02 07:49:23;;;;;;;;;;;;;;;8.60;83.60;99876.88;106360;1262;65221;-85
2023/11/02 07:51:50;;;;;;;;;;;;;;;8.62;83.72;99877.61;106414;1259;71906;-85
2023/11/02 07:54:16;;;;;;;;;;;;;;;8.65;83.68;99878.36;106184;1264;124134;-85
2023/11/02 07:56:44;;;;;;;;;;;;;;;8.66;83.65;99876.29;106245;1264;61286;-86
2023/11/02 07:59:11;;;;;;;;;;;;;;;8.65;83.51;99875.23;106127;1260;124280;-86
2023/11/02 08:01:38;;;;;;;;;;;;;;;8.66;83.62;99875.94;106235;1258;66440;-86
2023/11/02 08:04:06;;;;;;;;;;;;;;;8.67;83.65;99869.84;106146;1258;124072;-84
2023/11/02 08:06:33;;;;;;;;;;;;;;;8.71;83.72;99859.59;106454;1259;61389;-85
2023/11/02 08:09:00;;;;;;;;;;;;;;;8.75;83.81;99850.05;106192;1265;61299;-85
2023/11/02 08:11:27;;;;;;;;;;;;;;;8.79;83.75;99844.33;106205;1259;124171;-85
2023/11/02 08:13:56;;;;;;;;;;;;;;;8.86;83.81;99840.09;106232;1263;65279;-85
2023/11/02 08:16:22;;;;;;;;;;;;;;;8.92;83.88;99841.94;106260;1257;126563;-85
2023/11/02 08:18:49;;;;;;;;;;;;;;;8.98;83.80;99846.07;106244;1257;59603;-85
2023/11/02 08:21:16;;;;;;;;;;;;;;;9.07;83.92;99836.07;106474;1257;61366;-85
2023/11/02 08:23:42;;;;;;;;;;;;;;;9.18;83.91;99835.00;106219;1259;124744;-85
2023/11/02 08:26:09;;;;;;;;;;;;;;;9.31;83.95;99832.59;106354;1261;64786;-85
2023/11/02 08:28:35;;;;;;;;;;;;;;;9.42;83.88;99829.25;106214;1261;124903;-85
2023/11/02 08:31:02;;;;;;;;;;;;;;;9.48;83.51;99829.34;106298;1257;61682;-85
2023/11/02 08:33:29;;;;;;;;;;;;;;;9.50;83.24;99830.95;106257;1260;61038;-85
2023/11/02 08:35:55;;;;;;;;;;;;;;;9.45;82.93;99828.94;106339;1258;124838;-86
2023/11/02 08:38:22;;;;;;;;;;;;;;;9.42;82.86;99827.16;106283;1260;67277;-85
2023/11/02 08:40:49;;;;;;;;;;;;;;;9.45;82.94;99832.10;106308;1262;124580;-87
2023/11/02 08:43:15;;;;;;;;;;;;;;;9.53;83.10;99828.52;106174;1261;61320;-85
2023/11/02 08:45:42;;;;;;;;;;;;;;;9.60;83.00;99821.63;106138;1259;59984;-83
2023/11/02 08:48:09;;;;;;;;;;;;;;;9.68;83.05;99821.91;106102;1258;124753;-86
2023/11/02 08:50:35;;;;;;;;;;;;;;;9.77;83.04;99820.27;106257;1257;64672;-86
2023/11/02 08:53:02;;;;;;;;;;;;;;;9.83;82.98;99812.99;106132;1257;124946;-86
2023/11/02 08:55:29;;;;;;;;;;;;;;;9.86;82.72;99810.94;106313;1258;61199;-86
2023/11/02 08:57:55;;;;;;;;;;;;;;;9.91;82.75;99807.33;106320;1260;124795;-87
2023/11/02 09:00:22;;;;;;;;;;;;;;;9.96;82.63;99804.39;106353;1258;74717;-87
2023/11/02 09:02:49;;;;;;;;;;;;;;;9.99;82.45;99800.77;106184;1263;66324;-83
2023/11/02 09:05:15;;;;;;;;;;;;;;;10.03;82.61;99806.07;106259;1260;124634;-82
2023/11/02 09:07:42;;;;;;;;;;;;;;;10.07;82.54;99809.63;106151;1260;61778;-83
2023/11/02 09:10:08;;;;;;;;;;;;;;;10.11;82.53;99801.23;106049;1262;124933;-83
2023/11/02 09:12:35;;;;;;;;;;;;;;;10.18;82.56;99796.41;106215;1258;74739;-81
2023/11/02 09:15:02;;;;;;;;;;;;;;;10.26;82.52;99790.21;106061;1260;66189;-84
2023/11/02 09:17:28;;;;;;;;;;;;;;;10.40;82.64;99787.20;106079;1263;126540;-85
2023/11/02 09:19:55;;;;;;;;;;;;;;;10.57;82.74;99784.23;106186;1259;170462;-84
2023/11/02 09:22:22;;;;;;;;;;;;;;;10.77;82.61;99776.52;106403;1262;126995;-84
2023/11/02 09:24:48;;;;;;;;;;;;;;;10.94;82.47;99771.73;106503;1258;74308;-84
2023/11/02 09:27:15;;;;;;;;;;;;;;;11.10;82.20;99766.93;106329;1258;66205;-84
2023/11/02 09:29:44;;;;;;;;;;;;;;;11.23;81.85;99763.86;106188;1258;124776;-84
2023/11/02 09:32:11;;;;;;;;;;;;;;;11.31;81.51;99767.25;106215;1257;61808;-84
2023/11/02 09:34:38;;;;;;;;;;;;;;;11.34;81.24;99757.42;106176;1258;124343;-84
2023/11/02 09:37:05;;;;;;;;;;;;;;;11.39;81.03;99756.58;106214;1258;74458;-84
2023/11/02 09:39:32;;;;;;;;;;;;;;;11.38;80.71;99757.62;106233;1262;65666;-84
2023/11/02 09:41:59;;;;;;;;;;;;;;;11.39;80.63;99756.59;106221;1258;124437;-83
2023/11/02 09:44:26;;;;;;;;;;;;;;;11.42;80.69;99752.55;106282;1259;61288;-84
2023/11/02 09:46:54;;;;;;;;;;;;;;;11.42;80.56;99750.63;106121;1260;124097;-83
2023/11/02 09:49:21;;;;;;;;;;;;;;;11.40;80.46;99750.09;106246;1257;73789;-83
2023/11/02 09:51:48;;;;;;;;;;;;;;;11.40;80.57;99749.20;106216;1260;66027;-84
2023/11/02 09:54:15;;;;;;;;;;;;;;;11.43;80.68;99740.63;106193;1259;123884;-85
2023/11/02 09:56:41;;;;;;;;;;;;;;;11.46;80.66;99731.67;106218;1261;61793;-84
2023/11/02 09:59:08;;;;;;;;;;;;;;;11.45;80.36;99726.93;106188;1257;124637;-84
2023/11/02 10:01:35;;;;;;;;;;;;;;;11.45;80.41;99721.49;106327;1261;74676;-84
2023/11/02 10:04:02;;;;;;;;;;;;;;;11.45;80.41;99718.33;106320;1259;124978;-83
2023/11/02 10:06:29;;;;;;;;;;;;;;;11.43;80.29;99715.33;106228;1260;72407;-85
2023/11/02 10:08:56;;;;;;;;;;;;;;;11.45;80.37;99707.24;106338;1257;61321;-85
2023/11/02 10:11:24;;;;;;;;;;;;;;;11.48;80.43;99701.65;106520;1258;125030;-84
2023/11/02 10:13:51;;;;;;;;;;;;;;;11.51;80.26;99698.30;106518;1260;72451;-85
2023/11/02 10:16:21;;;;;;;;;;;;;;;11.52;80.14;99686.36;106310;1262;125756;-84
2023/11/02 10:18:48;;;;;;;;;;;;;;;11.54;80.16;99680.58;106218;1263;72801;-83
2023/11/02 10:21:14;;;;;;;;;;;;;;;11.58;80.20;99671.98;106328;1259;61365;-84
2023/11/02 10:23:54;;;;;;;;;;;;;;;11.62;80.12;99675.88;106221;1258;124904;-84
2023/11/02 10:26:26;;;;;;;;;;;;;;;11.62;79.89;99669.73;106563;1258;73330;-84
2023/11/02 10:28:54;;;;;;;;;;;;;;;11.59;79.66;99666.53;106335;1261;125085;-84
2023/11/02 10:31:23;;;;;;;;;;;;;;;11.57;79.70;99666.73;106414;1258;72723;-83
2023/11/02 10:33:50;;;;;;;;;;;;;;;11.57;79.78;99667.24;106383;1261;64605;-84
2023/11/02 10:36:17;;;;;;;;;;;;;;;11.61;79.86;99669.89;106251;1264;124780;-83
2023/11/02 10:38:44;;;;;;;;;;;;;;;11.71;79.97;99662.20;106250;1263;75691;-84
2023/11/02 10:41:16;;;;;;;;;;;;;;;11.82;79.90;99652.20;106320;1257;125048;-84
2023/11/02 10:43:46;;;;;;;;;;;;;;;11.94;79.82;99639.60;106681;1257;71362;-82
2023/11/02 10:46:13;;;;;;;;;;;;;;;12.03;79.59;99635.75;106260;1261;124901;-81
2023/11/02 10:48:39;;;;;;;;;;;;;;;12.12;79.43;99629.42;106240;1258;61337;-83
2023/11/02 10:51:07;;;;;;;;;;;;;;;12.22;79.41;99619.06;106303;1261;73389;-82
2023/11/02 10:53:42;;;;;;;;;;;;;;;12.33;79.28;99615.89;106515;1261;125310;-82
2023/11/02 10:56:12;;;;;;;;;;;;;;;12.40;78.94;99610.08;106298;1260;72886;-80
2023/11/02 10:58:40;;;;;;;;;;;;;;;12.38;78.61;99601.63;106213;1257;126001;-82
2023/11/02 11:01:07;;;;;;;;;;;;;;;12.33;78.21;99602.86;106357;1262;61257;-83
2023/11/02 11:03:34;;;;;;;;;;;;;;;12.27;78.10;99603.40;106363;1258;74152;-83
2023/11/02 11:06:01;;;;;;;;;;;;;;;12.23;78.15;99600.41;106068;1258;124485;-83
2023/11/02 11:08:28;;;;;;;;;;;;;;;12.25;78.28;99598.82;106134;1258;72702;-82
2023/11/02 11:10:54;;;;;;;;;;;;;;;12.28;78.33;99596.73;106058;1258;125351;-83
2023/11/02 11:13:21;;;;;;;;;;;;;;;12.35;78.48;99599.70;106214;1263;61366;-83
2023/11/02 11:15:48;;;;;;;;;;;;;;;12.43;78.64;99604.44;106376;1259;74716;-82
2023/11/02 11:18:15;;;;;;;;;;;;;;;12.52;78.44;99604.45;106076;1258;126839;-84
2023/11/02 11:20:43;;;;;;;;;;;;;;;12.63;78.42;99605.30;106223;1261;72735;-83
2023/11/02 11:23:10;;;;;;;;;;;;;;;12.72;78.42;99601.59;106261;1263;124895;-83
2023/11/02 11:25:55;;;;;;;;;;;;;;;12.80;78.21;99600.86;106319;1258;59424;-83
2023/11/02 11:28:32;;;;;;;;;;;;;;;12.85;77.77;99594.16;106194;1261;125134;-83
2023/11/02 11:30:59;;;;;;;;;;;;;;;12.87;77.59;99588.34;106333;1260;67914;-83
2023/11/02 11:33:47;;;;;;;;;;;;;;;12.93;77.74;99588.16;106287;1260;72716;-83
2023/11/02 11:36:17;;;;;;;;;;;;;;;13.09;77.95;99580.52;106162;1257;124929;-84
2023/11/02 11:38:44;;;;;;;;;;;;;;;13.26;77.72;99576.56;106353;1258;61406;-82
2023/11/02 11:41:30;;;;;;;;;;;;;;;13.39;77.49;99566.66;106089;1257;126412;-83
2023/11/02 11:44:07;;;;;;;;;;;;;;;13.49;77.11;99561.68;106133;1263;65520;-83
2023/11/02 11:46:41;;;;;;;;;;;;;;;13.52;76.91;99555.13;106299;1258;125241;-83
2023/11/02 11:49:28;;;;;;;;;;;;;;;13.54;76.83;99552.30;106284;1258;61279;-82
2023/11/02 11:51:55;;;;;;;;;;;;;;;13.56;76.72;99548.58;106138;1258;124425;-84
2023/11/02 11:54:26;;;;;;;;;;;;;;;13.56;76.60;99542.77;106200;1258;74824;-84
2023/11/02 11:56:53;;;;;;;;;;;;;;;13.55;76.47;99539.78;106267;1258;64107;-83
2023/11/02 11:59:19;;;;;;;;;;;;;;;13.54;76.30;99535.21;106196;1260;124372;-83
2023/11/02 12:02:06;;;;;;;;;;;;;;;13.50;76.31;99528.54;106201;1260;61289;-83
2023/11/02 12:04:45;;;;;;;;;;;;;;;13.45;76.25;99520.81;106164;1258;124238;-85
2023/11/02 12:07:22;;;;;;;;;;;;;;;13.42;76.35;99517.31;106255;1258;74717;-83
2023/11/02 12:09:49;;;;;;;;;;;;;;;13.40;76.39;99510.96;106245;1261;64738;-84
2023/11/02 12:12:16;;;;;;;;;;;;;;;13.39;76.44;99500.77;106120;1258;124409;-84
2023/11/02 12:14:42;;;;;;;;;;;;;;;13.40;76.54;99493.00;106223;1258;61369;-83
2023/11/02 12:17:09;;;;;;;;;;;;;;;13.39;76.59;99477.86;106212;1258;124367;-83
2023/11/02 12:19:39;;;;;;;;;;;;;;;13.37;76.49;99469.95;106249;1258;73386;-83
2023/11/02 12:22:07;;;;;;;;;;;;;;;13.36;76.40;99464.67;106080;1258;124465;-83
2023/11/02 12:24:37;;;;;;;;;;;;;;;13.36;76.47;99456.21;106068;1264;71358;-83
2023/11/02 12:27:13;;;;;;;;;;;;;;;13.35;76.43;99447.94;106231;1263;61373;-84
2023/11/02 12:29:54;;;;;;;;;;;;;;;13.33;76.24;99437.36;106120;1262;124683;-84
2023/11/02 12:32:21;;;;;;;;;;;;;;;13.30;76.13;99423.83;106296;1258;73117;-86
2023/11/02 12:34:48;;;;;;;;;;;;;;;13.29;76.04;99416.76;106184;1261;124940;-84
2023/11/02 12:37:15;;;;;;;;;;;;;;;13.26;75.95;99413.80;106289;1257;73806;-86
2023/11/02 12:39:56;;;;;;;;;;;;;;;13.23;75.97;99409.05;106703;1259;60662;-85
2023/11/02 12:42:23;;;;;;;;;;;;;;;13.18;75.92;99396.41;106703;1258;60099;-86
2023/11/02 12:44:51;;;;;;;;;;;;;;;13.13;75.96;99389.58;106362;1258;73378;-85